createdAt,value
2022-07-29T00:02:26.637Z,2.25
2022-07-29T00:04:53.711Z,1.98
2022-07-29T00:07:20.860Z,2.03
2022-07-29T00:09:51.797Z,2.08
2022-07-29T00:12:25.781Z,2.08
2022-07-29T00:14:54.686Z,2.30
2022-07-29T00:17:21.669Z,2.35
2022-07-29T00:19:48.245Z,2.25
2022-07-29T00:22:14.884Z,2.20
2022-07-29T00:24:41.830Z,2.05
2022-07-29T00:27:08.488Z,1.75
2022-07-29T00:29:35.497Z,2.22
2022-07-29T00:32:03.601Z,2.38
2022-07-29T00:34:48.985Z,2.42
2022-07-29T00:37:15.587Z,2.00
2022-07-29T00:39:42.430Z,2.20
2022-07-29T00:42:09.158Z,2.03
2022-07-29T00:44:40.068Z,2.30
2022-07-29T00:47:07.406Z,2.20
2022-07-29T00:49:35.407Z,2.17
2022-07-29T00:52:06.312Z,2.33
2022-07-29T00:54:34.608Z,2.13
2022-07-29T00:57:01.823Z,2.00
2022-07-29T00:59:34.375Z,2.00
2022-07-29T01:02:02.089Z,2.10
2022-07-29T01:04:30.619Z,2.50
2022-07-29T01:06:57.592Z,2.20
2022-07-29T01:09:40.797Z,2.13
2022-07-29T01:12:13.875Z,2.10
2022-07-29T01:14:41.486Z,2.17
2022-07-29T01:17:15.051Z,2.28
2022-07-29T01:19:56.602Z,2.40
2022-07-29T01:22:34.980Z,2.50
2022-07-29T01:25:26.359Z,2.72
2022-07-29T01:28:27.519Z,2.83
2022-07-29T01:30:55.560Z,2.60
2022-07-29T01:33:45.189Z,1.90
2022-07-29T01:36:15.678Z,2.08
2022-07-29T01:38:46.048Z,2.17
2022-07-29T01:41:18.661Z,2.30
2022-07-29T01:43:54.845Z,2.20
2022-07-29T01:46:29.181Z,2.20
2022-07-29T01:49:07.125Z,2.42
2022-07-29T01:51:41.779Z,2.50
2022-07-29T01:54:43.834Z,2.15
2022-07-29T01:57:15.758Z,2.90
2022-07-29T01:59:44.131Z,2.10
2022-07-29T02:02:14.483Z,2.40
2022-07-29T02:04:43.845Z,2.33
2022-07-29T02:07:14.843Z,2.60
2022-07-29T02:09:43.613Z,2.33
2022-07-29T02:12:12.651Z,2.63
2022-07-29T02:14:46.062Z,2.60
2022-07-29T02:17:14.614Z,2.90
2022-07-29T02:19:43.973Z,2.63
2022-07-29T02:22:12.107Z,3.20
2022-07-29T02:24:41.264Z,2.60
2022-07-29T02:27:09.403Z,2.55
2022-07-29T02:29:38.236Z,2.40
2022-07-29T02:32:06.854Z,2.70
2022-07-29T02:34:35.300Z,2.50
2022-07-29T02:37:03.786Z,2.42
2022-07-29T02:39:31.038Z,2.63
2022-07-29T02:42:05.056Z,2.63
2022-07-29T02:44:34.795Z,2.75
2022-07-29T02:47:12.158Z,3.20
2022-07-29T02:49:57.122Z,2.80
2022-07-29T02:52:32.544Z,2.95
2022-07-29T02:55:20.166Z,2.47
2022-07-29T02:58:02.623Z,2.60
2022-07-29T03:00:31.268Z,2.40
2022-07-29T03:03:01.252Z,2.30
2022-07-29T03:05:28.470Z,2.17
2022-07-29T03:08:07.673Z,2.67
2022-07-29T03:10:35.590Z,2.30
2022-07-29T03:13:02.773Z,2.40
2022-07-29T03:15:30.138Z,2.38
2022-07-29T03:17:57.536Z,2.13
2022-07-29T03:20:24.452Z,2.20
2022-07-29T03:22:51.567Z,2.60
2022-07-29T03:25:20.679Z,2.20
2022-07-29T03:27:48.485Z,2.65
2022-07-29T03:30:18.438Z,2.45
2022-07-29T03:32:48.713Z,2.40
2022-07-29T03:35:17.512Z,3.00
2022-07-29T03:37:45.067Z,2.00
2022-07-29T03:40:19.116Z,2.50
2022-07-29T03:42:47.750Z,2.35
2022-07-29T03:45:18.398Z,2.40
2022-07-29T03:47:50.979Z,2.53
2022-07-29T03:50:21.111Z,2.30
2022-07-29T03:52:49.079Z,2.35
2022-07-29T03:55:16.286Z,2.20
2022-07-29T03:57:45.303Z,2.60
2022-07-29T04:00:12.864Z,2.50
2022-07-29T04:02:41.052Z,2.42
2022-07-29T04:07:39.288Z,2.70
2022-07-29T04:10:06.496Z,2.85
2022-07-29T04:12:33.285Z,2.67
2022-07-29T04:14:59.891Z,2.45
2022-07-29T04:17:26.497Z,2.25
2022-07-29T04:19:53.117Z,2.40
2022-07-29T04:22:19.742Z,2.63
2022-07-29T04:24:46.301Z,2.40
2022-07-29T04:27:13.309Z,2.40
2022-07-29T04:29:56.197Z,2.40
2022-07-29T04:32:25.381Z,2.47
2022-07-29T04:34:52.315Z,2.42
2022-07-29T04:37:19.377Z,2.83
2022-07-29T04:39:46.025Z,2.88
2022-07-29T04:42:12.650Z,2.65
2022-07-29T04:44:42.873Z,2.70
2022-07-29T04:47:10.359Z,2.50
2022-07-29T04:49:39.819Z,2.30
2022-07-29T04:52:07.668Z,2.92
2022-07-29T04:54:34.418Z,2.60
2022-07-29T04:57:01.084Z,2.88
2022-07-29T04:59:28.031Z,2.40
2022-07-29T05:01:54.718Z,2.72
2022-07-29T05:04:21.515Z,2.65
2022-07-29T05:06:48.885Z,2.50
2022-07-29T05:09:15.847Z,2.60
2022-07-29T05:11:42.578Z,2.70
2022-07-29T05:14:09.289Z,2.50
2022-07-29T05:16:36.167Z,2.67
2022-07-29T05:19:03.188Z,2.63
2022-07-29T05:21:29.807Z,2.20
2022-07-29T05:23:56.400Z,2.33
2022-07-29T05:26:23.169Z,2.47
2022-07-29T05:28:50.016Z,2.70
2022-07-29T05:31:16.810Z,2.50
2022-07-29T05:33:43.466Z,2.70
2022-07-29T05:36:10.081Z,2.60
2022-07-29T05:38:37.172Z,2.78
2022-07-29T05:41:04.714Z,3.50
2022-07-29T05:43:31.475Z,3.20
2022-07-29T05:45:58.739Z,4.00
2022-07-29T05:48:25.623Z,3.70
2022-07-29T05:50:52.407Z,4.13
2022-07-29T05:53:20.546Z,3.97
2022-07-29T05:55:48.737Z,3.53
2022-07-29T05:58:15.713Z,4.60
2022-07-29T06:00:42.782Z,3.30
2022-07-29T06:03:09.433Z,2.72
2022-07-29T06:05:36.159Z,2.67
2022-07-29T06:08:02.980Z,3.40
2022-07-29T06:10:29.851Z,3.03
2022-07-29T06:12:56.529Z,2.92
2022-07-29T06:15:23.199Z,2.60
2022-07-29T06:18:00.806Z,3.70
2022-07-29T06:20:32.076Z,3.10
2022-07-29T06:22:59.877Z,3.83
2022-07-29T06:25:30.036Z,3.40
2022-07-29T06:27:57.031Z,3.55
2022-07-29T06:30:23.834Z,3.42
2022-07-29T06:32:50.454Z,3.47
2022-07-29T06:35:38.424Z,2.72
2022-07-29T06:38:04.178Z,2.50
2022-07-29T06:41:03.718Z,2.80
2022-07-29T06:43:34.732Z,2.63
2022-07-29T06:46:03.725Z,2.22
2022-07-29T06:48:30.707Z,2.47
2022-07-29T06:50:57.398Z,2.38
2022-07-29T06:53:24.022Z,2.60
2022-07-29T06:55:50.849Z,2.70
2022-07-29T06:58:18.940Z,2.25
2022-07-29T07:00:56.798Z,2.50
2022-07-29T07:03:23.696Z,2.70
2022-07-29T07:05:50.641Z,2.45
2022-07-29T07:08:17.342Z,2.90
2022-07-29T07:10:44.037Z,2.88
2022-07-29T07:13:10.730Z,2.75
2022-07-29T07:15:39.595Z,2.97
2022-07-29T07:18:07.525Z,3.30
2022-07-29T07:20:35.704Z,3.42
2022-07-29T07:25:29.411Z,3.55
2022-07-29T07:27:56.174Z,3.17
2022-07-29T07:30:22.909Z,3.28
2022-07-29T07:32:49.911Z,3.22
2022-07-29T07:35:16.647Z,3.38
2022-07-29T07:37:43.618Z,3.90
2022-07-29T07:40:12.623Z,3.40
2022-07-29T07:42:45.509Z,3.70
2022-07-29T07:45:15.835Z,3.58
2022-07-29T07:47:43.580Z,4.22
2022-07-29T07:50:16.540Z,3.92
2022-07-29T07:52:53.047Z,4.30
2022-07-29T07:55:20.263Z,4.18
2022-07-29T07:57:47.451Z,4.40
2022-07-29T08:00:16.453Z,4.30
2022-07-29T08:02:46.119Z,4.47
2022-07-29T08:05:17.743Z,3.95
2022-07-29T08:07:47.959Z,4.50
2022-07-29T08:10:36.785Z,4.45
2022-07-29T08:13:08.379Z,5.07
2022-07-29T08:15:36.025Z,4.65
2022-07-29T08:18:08.229Z,4.32
2022-07-29T08:20:36.682Z,4.32
2022-07-29T08:23:03.897Z,5.10
2022-07-29T08:25:30.549Z,4.13
2022-07-29T08:27:57.454Z,4.72
2022-07-29T08:30:24.193Z,4.18
2022-07-29T08:32:55.264Z,4.35
2022-07-29T08:35:24.068Z,4.18
2022-07-29T08:37:51.780Z,4.30
2022-07-29T08:40:18.783Z,3.83
2022-07-29T08:42:45.637Z,4.25
2022-07-29T08:45:13.150Z,4.00
2022-07-29T08:47:40.875Z,4.50
2022-07-29T08:50:09.784Z,3.83
2022-07-29T08:52:41.868Z,3.75
2022-07-29T08:55:10.557Z,3.67
2022-07-29T08:57:39.622Z,4.38
2022-07-29T09:00:19.250Z,4.40
2022-07-29T09:02:52.595Z,3.90
2022-07-29T09:05:20.267Z,3.85
2022-07-29T09:07:48.952Z,4.00
2022-07-29T09:10:15.823Z,3.70
2022-07-29T09:12:42.773Z,3.78
2022-07-29T09:15:10.003Z,3.83
2022-07-29T09:17:48.545Z,3.75
2022-07-29T09:20:18.167Z,3.90
2022-07-29T09:22:49.941Z,3.80
2022-07-29T09:25:33.767Z,3.60
2022-07-29T09:28:11.966Z,3.50
2022-07-29T09:30:57.910Z,3.10
2022-07-29T09:33:32.390Z,3.05
2022-07-29T09:36:07.315Z,3.35
2022-07-29T09:38:36.195Z,3.00
2022-07-29T09:41:06.497Z,3.15
2022-07-29T09:43:34.936Z,2.72
2022-07-29T09:48:39.319Z,3.03
2022-07-29T09:51:07.382Z,3.90
2022-07-29T09:53:35.593Z,3.10
2022-07-29T09:56:02.870Z,2.95
2022-07-29T09:58:29.719Z,3.10
2022-07-29T10:00:57.555Z,2.95
2022-07-29T10:03:25.005Z,2.85
2022-07-29T10:06:09.299Z,3.23
2022-07-29T10:08:36.382Z,2.53
2022-07-29T10:11:14.497Z,2.20
2022-07-29T10:13:42.826Z,2.70
2022-07-29T10:16:10.274Z,2.88
2022-07-29T10:18:39.988Z,3.53
2022-07-29T10:21:08.066Z,3.25
2022-07-29T10:23:46.963Z,3.22
2022-07-29T10:26:15.517Z,3.33
2022-07-29T10:28:42.377Z,3.50
2022-07-29T10:31:18.908Z,2.80
2022-07-29T10:33:53.510Z,3.03
2022-07-29T10:36:43.403Z,2.78
2022-07-29T10:39:26.819Z,3.20
2022-07-29T10:42:09.145Z,3.05
2022-07-29T10:44:36.801Z,2.80
2022-07-29T10:47:04.223Z,2.65
2022-07-29T10:49:31.420Z,2.97
2022-07-29T10:52:06.160Z,2.93
2022-07-29T10:54:54.576Z,2.70
2022-07-29T10:57:52.454Z,2.70
2022-07-29T11:00:28.711Z,2.67
2022-07-29T11:02:57.527Z,3.05
2022-07-29T11:08:19.605Z,2.30
2022-07-29T11:10:48.338Z,2.30
2022-07-29T11:13:51.369Z,2.35
2022-07-29T11:16:23.088Z,2.17
2022-07-29T11:19:14.344Z,2.50
2022-07-29T11:21:55.162Z,2.25
2022-07-29T11:24:29.164Z,2.03
2022-07-29T11:27:20.051Z,2.00
2022-07-29T11:29:54.049Z,2.17
2022-07-29T11:32:23.439Z,2.08
2022-07-29T11:35:17.040Z,2.20
2022-07-29T11:37:52.735Z,1.80
2022-07-29T11:40:23.711Z,2.10
2022-07-29T11:42:52.080Z,2.13
2022-07-29T11:45:44.361Z,1.90
2022-07-29T11:48:31.682Z,1.83
2022-07-29T11:56:17.008Z,2.03
2022-07-29T11:58:43.843Z,1.90
2022-07-29T12:01:15.132Z,2.13
2022-07-29T12:03:43.701Z,1.98
2022-07-29T12:06:17.461Z,2.22
2022-07-29T12:08:45.724Z,1.80
2022-07-29T12:11:21.760Z,1.70
2022-07-29T12:13:49.820Z,2.05
2022-07-29T12:16:29.461Z,2.00
2022-07-29T12:19:02.456Z,1.90
2022-07-29T12:21:31.033Z,1.95
2022-07-29T12:24:05.842Z,1.75
2022-07-29T12:26:37.492Z,2.13
2022-07-29T12:29:11.425Z,1.88
2022-07-29T12:31:45.326Z,2.15
2022-07-29T12:34:14.445Z,1.80
2022-07-29T12:36:43.096Z,1.80
2022-07-29T12:39:11.589Z,1.80
2022-07-29T12:41:38.471Z,1.80
2022-07-29T12:44:05.604Z,1.90
2022-07-29T12:46:32.507Z,2.00
2022-07-29T12:48:59.674Z,2.10
2022-07-29T12:51:33.751Z,2.35
2022-07-29T12:54:08.022Z,2.17
2022-07-29T12:56:44.031Z,1.90
2022-07-29T12:59:20.280Z,2.07
2022-07-29T13:01:51.158Z,1.90
2022-07-29T13:04:32.528Z,1.67
2022-07-29T13:07:09.157Z,1.83
2022-07-29T13:09:49.465Z,1.90
2022-07-29T13:12:16.232Z,1.92
2022-07-29T13:14:48.261Z,2.15
2022-07-29T13:17:21.743Z,2.03
2022-07-29T13:19:53.469Z,1.83
2022-07-29T13:22:25.044Z,1.75
2022-07-29T13:24:59.854Z,1.70
2022-07-29T13:27:29.963Z,1.85
2022-07-29T13:29:59.265Z,1.70
2022-07-29T13:32:28.458Z,1.60
2022-07-29T13:34:57.331Z,1.63
2022-07-29T13:37:24.235Z,1.73
2022-07-29T13:39:51.571Z,2.05
2022-07-29T13:42:20.457Z,1.65
2022-07-29T13:44:47.109Z,1.50
2022-07-29T13:47:13.871Z,2.10
2022-07-29T13:49:40.698Z,2.20
2022-07-29T13:52:08.410Z,2.00
2022-07-29T13:54:42.816Z,1.70
2022-07-29T13:57:11.825Z,1.98
2022-07-29T13:59:40.166Z,1.75
2022-07-29T14:02:07.293Z,1.80
2022-07-29T14:04:34.482Z,1.75
2022-07-29T14:07:03.783Z,1.90
2022-07-29T14:09:41.009Z,1.88
2022-07-29T14:12:09.044Z,1.75
2022-07-29T14:14:37.364Z,1.73
2022-07-29T14:17:04.552Z,1.70
2022-07-29T14:19:33.014Z,1.58
2022-07-29T14:22:00.180Z,1.52
2022-07-29T14:26:53.714Z,1.65
2022-07-29T14:29:20.803Z,1.67
2022-07-29T14:31:47.430Z,1.58
2022-07-29T14:34:14.114Z,1.70
2022-07-29T14:36:40.713Z,1.73
2022-07-29T14:39:08.062Z,1.70
2022-07-29T14:41:34.810Z,1.52
2022-07-29T14:44:04.643Z,1.80
2022-07-29T14:46:31.727Z,1.55
2022-07-29T14:48:58.548Z,1.70
2022-07-29T14:51:25.239Z,1.40
2022-07-29T14:53:59.362Z,1.50
2022-07-29T14:56:46.631Z,1.40
2022-07-29T14:59:12.980Z,1.40
2022-07-29T15:01:39.732Z,1.55
2022-07-29T15:04:06.405Z,1.47
2022-07-29T15:06:32.999Z,1.90
2022-07-29T15:08:59.643Z,2.33
2022-07-29T15:11:26.484Z,1.75
2022-07-29T15:13:53.170Z,1.57
2022-07-29T15:16:19.791Z,1.77
2022-07-29T15:18:46.720Z,2.05
2022-07-29T15:21:13.318Z,2.00
2022-07-29T15:23:40.016Z,1.92
2022-07-29T15:26:06.671Z,1.65
2022-07-29T15:28:33.292Z,1.67
2022-07-29T15:30:59.916Z,1.80
2022-07-29T15:33:26.827Z,1.70
2022-07-29T15:35:54.161Z,1.80
2022-07-29T15:38:20.816Z,1.63
2022-07-29T15:40:55.758Z,1.70
2022-07-29T15:43:22.703Z,1.58
2022-07-29T15:46:08.122Z,1.60
2022-07-29T15:48:39.347Z,1.60
2022-07-29T15:51:06.052Z,1.50
2022-07-29T15:53:33.130Z,1.90
2022-07-29T15:56:02.137Z,1.90
2022-07-29T15:58:29.007Z,1.70
2022-07-29T16:00:55.792Z,1.75
2022-07-29T16:03:22.915Z,1.77
2022-07-29T16:05:49.501Z,1.63
2022-07-29T16:08:16.225Z,2.20
2022-07-29T16:10:42.920Z,1.50
2022-07-29T16:13:09.553Z,1.65
2022-07-29T16:15:36.194Z,1.75
2022-07-29T16:18:02.919Z,1.90
2022-07-29T16:20:30.191Z,1.95
2022-07-29T16:22:57.066Z,1.60
2022-07-29T16:25:38.452Z,1.40
2022-07-29T16:28:10.665Z,1.52
2022-07-29T16:30:37.321Z,1.40
2022-07-29T16:33:08.113Z,1.33
2022-07-29T16:35:39.433Z,1.60
2022-07-29T16:38:06.643Z,1.55
2022-07-29T16:40:33.298Z,1.35
2022-07-29T16:42:59.971Z,1.60
2022-07-29T16:45:26.987Z,1.45
2022-07-29T16:48:01.160Z,1.65
2022-07-29T16:50:31.572Z,1.70
2022-07-29T16:52:58.288Z,1.75
2022-07-29T16:55:25.463Z,1.30
2022-07-29T16:57:54.944Z,1.60
2022-07-29T17:00:23.676Z,1.50
2022-07-29T17:02:50.495Z,1.45
2022-07-29T17:05:17.128Z,1.33
2022-07-29T17:07:43.869Z,1.65
2022-07-29T17:10:10.942Z,1.90
2022-07-29T17:12:39.647Z,2.10
2022-07-29T17:15:08.973Z,2.00
2022-07-29T17:17:39.484Z,2.25
2022-07-29T17:20:22.510Z,2.20
2022-07-29T17:22:49.133Z,2.20
2022-07-29T17:25:20.896Z,2.22
2022-07-29T17:27:50.413Z,2.70
2022-07-29T17:30:17.771Z,3.00
2022-07-29T17:32:44.718Z,2.38
2022-07-29T17:35:30.431Z,2.58
2022-07-29T17:37:57.468Z,2.38
2022-07-29T17:40:24.090Z,2.30
2022-07-29T17:42:50.793Z,2.38
2022-07-29T17:45:17.726Z,2.20
2022-07-29T17:47:45.319Z,2.67
2022-07-29T17:50:12.411Z,2.63
2022-07-29T17:52:39.180Z,2.80
2022-07-29T17:55:07.271Z,3.00
2022-07-29T18:00:00.934Z,2.28
2022-07-29T18:02:28.477Z,2.92
2022-07-29T18:04:55.324Z,2.38
2022-07-29T18:07:21.958Z,2.38
2022-07-29T18:09:48.609Z,2.50
2022-07-29T18:12:15.204Z,2.42
2022-07-29T18:14:42.134Z,2.30
2022-07-29T18:17:08.819Z,2.42
2022-07-29T18:19:35.438Z,2.35
2022-07-29T18:22:05.452Z,2.60
2022-07-29T18:24:32.580Z,2.63
2022-07-29T18:26:59.559Z,2.50
2022-07-29T18:29:28.956Z,2.53
2022-07-29T18:31:56.164Z,2.42
2022-07-29T18:34:22.763Z,2.78
2022-07-29T18:36:49.576Z,2.65
2022-07-29T18:39:20.338Z,2.47
2022-07-29T18:41:49.845Z,2.80
2022-07-29T18:44:19.439Z,2.83
2022-07-29T18:46:48.945Z,3.10
2022-07-29T18:49:15.686Z,3.25
2022-07-29T18:51:43.092Z,3.05
2022-07-29T18:54:10.473Z,3.00
2022-07-29T18:56:37.417Z,3.10
2022-07-29T18:59:04.642Z,3.20
2022-07-29T19:01:32.288Z,2.90
2022-07-29T19:03:59.381Z,2.83
2022-07-29T19:06:26.245Z,3.08
2022-07-29T19:08:53.315Z,2.85
2022-07-29T19:11:19.909Z,3.20
2022-07-29T19:13:46.510Z,2.95
2022-07-29T19:16:14.046Z,3.20
2022-07-29T19:18:41.294Z,3.00
2022-07-29T19:21:07.909Z,3.40
2022-07-29T19:24:00.195Z,3.20
2022-07-29T19:26:21.349Z,3.25
2022-07-29T19:28:48.787Z,3.30
2022-07-29T19:31:16.315Z,3.40
2022-07-29T19:33:43.061Z,3.35
2022-07-29T19:36:09.726Z,3.40
2022-07-29T19:38:38.206Z,3.80
2022-07-29T19:41:06.249Z,3.22
2022-07-29T19:43:49.829Z,3.65
2022-07-29T19:46:22.721Z,3.65
2022-07-29T19:48:49.991Z,3.30
2022-07-29T19:51:17.317Z,3.30
2022-07-29T19:53:44.015Z,3.80
2022-07-29T19:56:10.613Z,3.33
2022-07-29T19:58:37.358Z,3.60
2022-07-29T20:01:09.977Z,3.78
2022-07-29T20:03:39.688Z,3.70
2022-07-29T20:06:07.425Z,3.35
2022-07-29T20:08:34.155Z,3.20
2022-07-29T20:11:00.785Z,3.63
2022-07-29T20:13:27.452Z,3.40
2022-07-29T20:15:54.174Z,3.65
2022-07-29T20:18:20.820Z,3.60
2022-07-29T20:20:49.137Z,3.58
2022-07-29T20:23:16.438Z,3.38
2022-07-29T20:25:43.072Z,4.40
2022-07-29T20:28:09.855Z,3.80
2022-07-29T20:30:38.551Z,3.72
2022-07-29T20:33:05.893Z,3.70
2022-07-29T20:35:33.023Z,3.50
2022-07-29T20:38:00.504Z,3.70
2022-07-29T20:40:28.961Z,3.40
2022-07-29T20:42:55.789Z,3.97
2022-07-29T20:45:23.591Z,3.67
2022-07-29T20:47:52.037Z,3.65
2022-07-29T20:50:23.795Z,3.40
2022-07-29T20:52:51.942Z,3.50
2022-07-29T20:55:18.908Z,3.90
2022-07-29T20:57:45.683Z,3.40
2022-07-29T21:00:12.974Z,3.38
2022-07-29T21:02:40.124Z,3.88
2022-07-29T21:05:07.202Z,3.42
2022-07-29T21:07:33.920Z,3.75
2022-07-29T21:10:00.703Z,3.90
2022-07-29T21:12:30.157Z,3.97
2022-07-29T21:14:57.908Z,4.15
2022-07-29T21:17:25.155Z,4.03
2022-07-29T21:19:53.379Z,4.03
2022-07-29T21:22:22.182Z,3.47
2022-07-29T21:24:49.516Z,3.92
2022-07-29T21:27:35.589Z,4.20
2022-07-29T21:30:07.409Z,4.03
2022-07-29T21:32:34.236Z,3.83
2022-07-29T21:35:00.913Z,4.00
2022-07-29T21:37:28.311Z,4.00
2022-07-29T21:39:55.346Z,3.75
2022-07-29T21:42:22.135Z,3.67
2022-07-29T21:44:49.275Z,3.90
2022-07-29T21:47:15.983Z,3.67
2022-07-29T21:49:42.903Z,3.67
2022-07-29T21:52:09.515Z,3.22
2022-07-29T21:54:36.168Z,3.08
2022-07-29T21:57:03.606Z,3.10
2022-07-29T21:59:31.711Z,3.35
2022-07-29T22:02:00.907Z,3.80
2022-07-29T22:04:30.718Z,3.00
2022-07-29T22:06:58.729Z,3.47
2022-07-29T22:11:52.747Z,3.92
2022-07-29T22:14:19.779Z,4.22
2022-07-29T22:16:47.732Z,4.20
2022-07-29T22:19:15.031Z,3.92
2022-07-29T22:21:42.275Z,3.70
2022-07-29T22:24:10.299Z,3.20
2022-07-29T22:26:38.176Z,3.20
2022-07-29T22:29:04.852Z,3.30
2022-07-29T22:31:31.614Z,3.20
2022-07-29T22:33:58.272Z,3.22
2022-07-29T22:36:25.912Z,3.13
2022-07-29T22:38:52.571Z,3.08
2022-07-29T22:41:19.176Z,3.47
2022-07-29T22:43:45.821Z,3.13
2022-07-29T22:46:12.597Z,3.30
2022-07-29T22:48:39.291Z,3.80
2022-07-29T22:51:06.161Z,3.70
2022-07-29T22:53:32.839Z,3.63
2022-07-29T22:55:59.481Z,3.28
2022-07-29T22:58:26.310Z,3.80
2022-07-29T23:00:53.045Z,3.55
2022-07-29T23:03:20.355Z,4.13
2022-07-29T23:05:47.021Z,4.17
2022-07-29T23:08:13.715Z,3.85
2022-07-29T23:10:40.379Z,4.00
2022-07-29T23:13:07.337Z,3.83
2022-07-29T23:15:34.000Z,4.07
2022-07-29T23:18:00.840Z,3.88
2022-07-29T23:20:27.988Z,4.10
2022-07-29T23:22:54.735Z,3.83
2022-07-29T23:25:21.472Z,3.50
2022-07-29T23:27:48.411Z,3.30
2022-07-29T23:30:15.058Z,3.58
2022-07-29T23:32:41.672Z,3.65
2022-07-29T23:35:09.036Z,3.95
2022-07-29T23:37:35.720Z,4.00
2022-07-29T23:40:02.422Z,4.28
2022-07-29T23:42:29.078Z,4.28
2022-07-29T23:44:55.829Z,3.88
2022-07-29T23:47:22.479Z,3.92
2022-07-29T23:49:49.958Z,4.32
2022-07-29T23:52:17.293Z,4.75
2022-07-29T23:54:44.007Z,4.00
2022-07-29T23:57:10.684Z,4.32
2022-07-29T23:59:37.299Z,3.92
